createdAt,value
2022-12-11T00:00:49.043Z,533.1
2022-12-11T00:01:55.468Z,533.4
2022-12-11T00:03:01.889Z,537.2
2022-12-11T00:04:08.310Z,537.1
2022-12-11T00:05:14.744Z,525.2
2022-12-11T00:06:21.172Z,541.3
2022-12-11T00:07:27.594Z,536.1
2022-12-11T00:08:34.017Z,527.2
2022-12-11T00:10:46.868Z,523.8
2022-12-11T00:11:53.293Z,532.4
2022-12-11T00:12:59.718Z,537.2
2022-12-11T00:14:06.137Z,541.4
2022-12-11T00:15:12.571Z,541.4
2022-12-11T00:16:19.131Z,537.9
2022-12-11T00:17:25.666Z,542.9
2022-12-11T00:18:32.213Z,541.8
2022-12-11T00:19:38.762Z,531.8
2022-12-11T00:20:45.301Z,535.9
2022-12-11T00:21:51.859Z,537.5
2022-12-11T00:22:58.399Z,537.3
2022-12-11T00:24:04.935Z,538.2
2022-12-11T00:25:11.523Z,540.8
2022-12-11T00:26:18.011Z,540.7
2022-12-11T00:27:24.569Z,536
2022-12-11T00:28:31.107Z,537.6
2022-12-11T00:29:37.711Z,536.8
2022-12-11T00:31:10.013Z,534.4
2022-12-11T00:32:16.787Z,540
2022-12-11T00:33:23.569Z,523.8
2022-12-11T00:34:30.352Z,540.1
2022-12-11T00:35:37.170Z,544.1
2022-12-11T00:36:43.911Z,546.5
2022-12-11T00:37:50.688Z,546.5
2022-12-11T00:38:57.482Z,531.7
2022-12-11T00:40:04.257Z,544.9
2022-12-11T00:41:11.028Z,539.2
2022-12-11T00:42:17.816Z,530.7
2022-12-11T00:43:24.595Z,534.3
2022-12-11T00:44:31.391Z,538.9
2022-12-11T00:47:49.564Z,534.7
2022-12-11T00:49:27.588Z,546
2022-12-11T00:50:34.136Z,540.5
2022-12-11T00:51:40.677Z,547.6
2022-12-11T00:52:47.219Z,541
2022-12-11T00:53:53.759Z,549.6
2022-12-11T00:55:00.316Z,536
2022-12-11T00:56:06.854Z,544.8
2022-12-11T00:57:13.384Z,547.8
2022-12-11T00:59:26.475Z,541.6
2022-12-11T01:00:33.017Z,536.8
2022-12-11T01:01:39.561Z,541.2
2022-12-11T01:02:46.104Z,543.1
2022-12-11T01:03:52.664Z,546.9
2022-12-11T01:04:59.190Z,544.5
2022-12-11T01:06:05.736Z,553.3
2022-12-11T01:07:12.277Z,549.1
2022-12-11T01:08:18.812Z,546.8
2022-12-11T01:09:25.382Z,551.4
2022-12-11T01:10:32.013Z,542.1
2022-12-11T01:11:38.451Z,553.2
2022-12-11T01:12:44.999Z,548.8
2022-12-11T01:13:51.549Z,552.9
2022-12-11T01:14:58.097Z,554.7
2022-12-11T01:16:04.621Z,553
2022-12-11T01:17:11.402Z,545.6
2022-12-11T01:18:18.184Z,553.8
2022-12-11T01:19:24.973Z,552.9
2022-12-11T01:20:31.738Z,559.9
2022-12-11T01:21:38.516Z,551.5
2022-12-11T01:22:45.294Z,554.9
2022-12-11T01:23:52.072Z,555.6
2022-12-11T01:24:58.879Z,565.7
2022-12-11T01:26:05.618Z,550.7
2022-12-11T01:27:12.405Z,561.5
2022-12-11T01:28:19.178Z,559.3
2022-12-11T01:29:26.067Z,564.8
2022-12-11T01:30:32.728Z,561.9
2022-12-11T01:33:50.920Z,551.2
2022-12-11T01:35:28.938Z,552.9
2022-12-11T01:36:35.497Z,553.7
2022-12-11T01:37:42.027Z,566.5
2022-12-11T01:38:48.571Z,558.2
2022-12-11T01:39:55.101Z,555.6
2022-12-11T01:41:01.637Z,559.3
2022-12-11T01:42:08.200Z,557
2022-12-11T01:43:14.725Z,563
2022-12-11T01:44:21.263Z,569.5
2022-12-11T01:45:27.805Z,551.8
2022-12-11T01:46:34.334Z,565
2022-12-11T01:47:40.871Z,557.1
2022-12-11T01:48:47.406Z,571.5
2022-12-11T01:49:53.937Z,570.4
2022-12-11T01:51:00.483Z,577.5
2022-12-11T01:52:07.022Z,583
2022-12-11T01:53:13.569Z,583.3
2022-12-11T01:54:20.083Z,575.8
2022-12-11T01:55:26.684Z,570.2
2022-12-11T01:56:33.164Z,593.6
2022-12-11T01:57:39.702Z,600.5
2022-12-11T01:58:46.226Z,610.2
2022-12-11T01:59:52.772Z,606.6
2022-12-11T02:00:59.307Z,602.9
2022-12-11T02:02:05.830Z,607.2
2022-12-11T02:03:12.616Z,603.9
2022-12-11T02:04:19.377Z,610.7
2022-12-11T02:05:26.157Z,616.4
2022-12-11T02:06:32.923Z,638.2
2022-12-11T02:07:39.702Z,616.2
2022-12-11T02:08:46.473Z,615.8
2022-12-11T02:09:53.302Z,625.5
2022-12-11T02:11:00.022Z,620.9
2022-12-11T02:12:06.787Z,610
2022-12-11T02:13:13.561Z,643.9
2022-12-11T02:14:20.334Z,652.9
2022-12-11T02:15:27.103Z,679.6
2022-12-11T02:16:33.881Z,659.2
2022-12-11T02:19:52.066Z,657.6
2022-12-11T02:21:30.082Z,654.7
2022-12-11T02:22:36.610Z,675.4
2022-12-11T02:23:43.146Z,672.6
2022-12-11T02:24:49.675Z,646.5
2022-12-11T02:25:56.210Z,654.7
2022-12-11T02:27:02.749Z,632.5
2022-12-11T02:28:09.280Z,641.8
2022-12-11T02:29:15.814Z,629.3
2022-12-11T02:30:22.360Z,630.1
2022-12-11T02:31:28.886Z,654.6
2022-12-11T02:32:35.419Z,642.7
2022-12-11T02:33:41.960Z,662.5
2022-12-11T02:34:48.513Z,650.6
2022-12-11T02:35:55.028Z,653.7
2022-12-11T02:37:01.567Z,646.5
2022-12-11T02:38:08.092Z,656.5
2022-12-11T02:39:14.628Z,686.1
2022-12-11T02:40:21.160Z,657.3
2022-12-11T02:41:27.709Z,669.2
2022-12-11T02:42:34.247Z,661.1
2022-12-11T02:43:40.782Z,667.6
2022-12-11T02:44:47.316Z,665.7
2022-12-11T02:45:53.850Z,724.6
2022-12-11T02:47:00.394Z,721.1
2022-12-11T02:48:06.937Z,708.4
2022-12-11T02:49:13.704Z,703.6
2022-12-11T02:50:20.482Z,693.6
2022-12-11T02:51:27.257Z,708.1
2022-12-11T02:52:34.023Z,709.8
2022-12-11T02:53:40.797Z,703.1
2022-12-11T02:54:47.579Z,720.8
2022-12-11T02:55:54.348Z,711.4
2022-12-11T02:57:01.118Z,699.5
2022-12-11T02:58:07.933Z,691.6
2022-12-11T02:59:14.673Z,695.9
2022-12-11T03:00:21.453Z,705.7
2022-12-11T03:01:28.211Z,685.6
2022-12-11T03:02:34.986Z,673.1
2022-12-11T03:05:53.177Z,668.4
2022-12-11T03:07:31.188Z,667.5
2022-12-11T03:08:37.783Z,665.1
2022-12-11T03:09:44.264Z,679.7
2022-12-11T03:10:50.792Z,670.1
2022-12-11T03:11:57.466Z,668.9
2022-12-11T03:13:03.865Z,675.7
2022-12-11T03:14:10.491Z,705.3
2022-12-11T03:15:16.961Z,690.6
2022-12-11T03:16:23.473Z,678.4
2022-12-11T03:17:30.016Z,697.7
2022-12-11T03:18:36.565Z,731.6
2022-12-11T03:19:43.114Z,737.4
2022-12-11T03:20:49.640Z,726.3
2022-12-11T03:21:56.188Z,726.3
2022-12-11T03:23:02.707Z,716
2022-12-11T03:24:09.256Z,707
2022-12-11T03:25:15.789Z,713.1
2022-12-11T03:26:22.315Z,691.1
2022-12-11T03:27:28.850Z,728.7
2022-12-11T03:28:35.387Z,735.3
2022-12-11T03:29:41.934Z,744.7
2022-12-11T03:30:48.461Z,768
2022-12-11T03:31:54.999Z,776.4
2022-12-11T03:33:01.536Z,810.9
2022-12-11T03:34:08.079Z,788.9
2022-12-11T03:35:14.852Z,742.8
2022-12-11T03:36:21.624Z,738.8
2022-12-11T03:37:28.399Z,708.7
2022-12-11T03:38:35.183Z,706.9
2022-12-11T03:39:41.945Z,699.7
2022-12-11T03:40:48.721Z,707.3
2022-12-11T03:41:55.490Z,700.3
2022-12-11T03:43:02.273Z,695.9
2022-12-11T03:44:09.037Z,708
2022-12-11T03:45:15.811Z,693.5
2022-12-11T03:46:22.582Z,696.3
2022-12-11T03:47:29.357Z,672.5
2022-12-11T03:48:36.127Z,693.9
2022-12-11T03:51:54.312Z,701.9
2022-12-11T03:53:32.205Z,669.5
2022-12-11T03:54:38.620Z,695.1
2022-12-11T03:55:45.036Z,676.4
2022-12-11T03:56:51.451Z,666.4
2022-12-11T03:57:57.874Z,646
2022-12-11T03:59:04.317Z,641.2
2022-12-11T04:00:10.712Z,661.7
2022-12-11T04:01:17.122Z,656.2
2022-12-11T04:02:23.590Z,656.4
2022-12-11T04:03:29.955Z,669.4
2022-12-11T04:04:36.371Z,652.7
2022-12-11T04:05:42.790Z,658.1
2022-12-11T04:06:49.221Z,661.1
2022-12-11T04:07:55.624Z,655.8
2022-12-11T04:09:02.037Z,639.1
2022-12-11T04:10:08.478Z,623.7
2022-12-11T04:11:14.867Z,611.4
2022-12-11T04:12:21.286Z,615.7
2022-12-11T04:13:27.700Z,589.7
2022-12-11T04:14:34.124Z,591.4
2022-12-11T04:15:40.535Z,593.9
2022-12-11T04:16:46.954Z,586.6
2022-12-11T04:17:53.374Z,582.8
2022-12-11T04:18:59.842Z,583.2
2022-12-11T04:20:06.200Z,612
2022-12-11T04:21:12.762Z,610.3
2022-12-11T04:22:19.291Z,611.4
2022-12-11T04:23:25.829Z,604.1
2022-12-11T04:24:32.364Z,610
2022-12-11T04:25:38.894Z,594.7
2022-12-11T04:26:45.434Z,590.7
2022-12-11T04:27:51.966Z,608.9
2022-12-11T04:28:58.507Z,623.9
2022-12-11T04:30:05.047Z,632.2
2022-12-11T04:31:11.571Z,615.4
2022-12-11T04:32:18.112Z,612
2022-12-11T04:33:24.648Z,608
2022-12-11T04:34:31.178Z,597.4
2022-12-11T04:36:05.127Z,593.7
2022-12-11T04:37:11.896Z,592.1
2022-12-11T04:38:18.672Z,583.2
2022-12-11T04:39:25.434Z,594
2022-12-11T04:40:32.212Z,574.4
2022-12-11T04:41:38.981Z,569.7
2022-12-11T04:42:45.759Z,580.3
2022-12-11T04:43:52.522Z,592
2022-12-11T04:44:59.312Z,577.3
2022-12-11T04:46:06.064Z,577
2022-12-11T04:47:12.842Z,567.6
2022-12-11T04:48:19.624Z,577.1
2022-12-11T04:49:26.399Z,571.8
2022-12-11T04:52:44.579Z,581.2
2022-12-11T04:54:22.597Z,578.8
2022-12-11T04:55:29.149Z,574.9
2022-12-11T04:56:35.663Z,568.5
2022-12-11T04:57:42.218Z,581.4
2022-12-11T04:58:48.742Z,594.3
2022-12-11T04:59:55.271Z,575.7
2022-12-11T05:01:01.815Z,573.1
2022-12-11T05:02:08.343Z,582.6
2022-12-11T05:03:14.965Z,567.3
2022-12-11T05:04:21.421Z,573.1
2022-12-11T05:05:27.957Z,562.5
2022-12-11T05:06:34.503Z,559.4
2022-12-11T05:07:41.031Z,568.8
2022-12-11T05:08:47.573Z,560.5
2022-12-11T05:09:54.105Z,558.9
2022-12-11T05:11:00.719Z,559.7
2022-12-11T05:12:07.185Z,571.3
2022-12-11T05:13:13.716Z,571.9
2022-12-11T05:14:20.256Z,567.1
2022-12-11T05:15:26.797Z,570.6
2022-12-11T05:16:33.336Z,566.8
2022-12-11T05:17:39.876Z,557.5
2022-12-11T05:18:46.412Z,553.7
2022-12-11T05:19:52.958Z,558.2
2022-12-11T05:20:59.499Z,564.8
2022-12-11T05:22:06.279Z,567.8
2022-12-11T05:23:13.057Z,556.9
2022-12-11T05:24:19.835Z,571.1
2022-12-11T05:25:26.596Z,580
2022-12-11T05:26:33.417Z,567.9
2022-12-11T05:27:40.155Z,563.1
2022-12-11T05:28:46.923Z,562.7
2022-12-11T05:29:53.699Z,562.4
2022-12-11T05:31:00.477Z,571.8
2022-12-11T05:32:07.252Z,559.9
2022-12-11T05:33:14.020Z,562.7
2022-12-11T05:34:20.797Z,550.7
2022-12-11T05:35:27.576Z,546.7
2022-12-11T05:38:45.773Z,545.3
2022-12-11T05:40:24.525Z,548.6
2022-12-11T05:42:02.558Z,552.5
2022-12-11T05:43:09.102Z,558.5
2022-12-11T05:44:15.634Z,558
2022-12-11T05:45:22.172Z,560
2022-12-11T05:46:28.709Z,558.9
2022-12-11T05:47:35.249Z,565.1
2022-12-11T05:48:41.796Z,559.3
2022-12-11T05:49:48.341Z,559.1
2022-12-11T05:50:54.876Z,564.2
2022-12-11T05:52:01.431Z,550.4
2022-12-11T05:53:07.962Z,552.6
2022-12-11T05:54:14.510Z,562.9
2022-12-11T05:55:21.055Z,553.1
2022-12-11T05:56:27.590Z,557.2
2022-12-11T05:57:34.176Z,560.1
2022-12-11T05:58:40.686Z,557.6
2022-12-11T05:59:47.259Z,558
2022-12-11T06:00:53.773Z,557.1
2022-12-11T06:02:00.318Z,545.8
2022-12-11T06:03:06.860Z,545.2
2022-12-11T06:04:13.402Z,549.7
2022-12-11T06:05:19.945Z,548.6
2022-12-11T06:06:26.483Z,549.1
2022-12-11T06:07:33.025Z,547.3
2022-12-11T06:08:39.575Z,545.6
2022-12-11T06:09:46.350Z,545.4
2022-12-11T06:10:53.190Z,543.6
2022-12-11T06:11:59.909Z,545.8
2022-12-11T06:13:06.691Z,545.7
2022-12-11T06:14:13.469Z,549.4
2022-12-11T06:15:20.268Z,550.9
2022-12-11T06:16:27.021Z,551.7
2022-12-11T06:17:33.801Z,546.1
2022-12-11T06:18:40.577Z,547.5
2022-12-11T06:19:47.361Z,543.5
2022-12-11T06:20:54.131Z,550.9
2022-12-11T06:22:00.918Z,551.4
2022-12-11T06:23:07.722Z,548.6
2022-12-11T06:26:25.879Z,544.1
2022-12-11T06:28:03.781Z,547.5
2022-12-11T06:29:10.217Z,537.8
2022-12-11T06:30:16.623Z,536.8
2022-12-11T06:31:23.052Z,533.7
2022-12-11T06:32:29.461Z,546
2022-12-11T06:33:35.883Z,549.8
2022-12-11T06:34:42.302Z,543.2
2022-12-11T06:35:48.780Z,550.5
2022-12-11T06:36:55.211Z,539.3
2022-12-11T06:38:01.581Z,542.1
2022-12-11T06:39:07.999Z,540.9
2022-12-11T06:40:14.455Z,545.7
2022-12-11T06:41:20.849Z,539
2022-12-11T06:42:27.263Z,547.7
2022-12-11T06:43:33.688Z,547.3
2022-12-11T06:44:40.108Z,545.7
2022-12-11T06:45:46.530Z,552.2
2022-12-11T06:46:52.955Z,545.4
2022-12-11T06:47:59.399Z,548.3
2022-12-11T06:49:05.796Z,542.1
2022-12-11T06:50:12.226Z,536.9
2022-12-11T06:51:18.649Z,537.2
2022-12-11T06:52:25.075Z,540.5
2022-12-11T06:53:31.491Z,533.6
2022-12-11T06:54:37.921Z,543.9
2022-12-11T06:55:44.467Z,544.4
2022-12-11T06:56:51.059Z,541.8
2022-12-11T06:57:57.572Z,547.6
2022-12-11T06:59:04.102Z,559.7
2022-12-11T07:00:10.825Z,552.5
2022-12-11T07:01:17.221Z,546
2022-12-11T07:02:23.791Z,551.5
2022-12-11T07:03:30.264Z,550.2
2022-12-11T07:04:36.996Z,548.6
2022-12-11T07:05:43.351Z,553.7
2022-12-11T07:06:49.878Z,544.3
2022-12-11T07:07:56.416Z,552.7
2022-12-11T07:09:02.967Z,554.7
2022-12-11T07:10:52.328Z,545.6
2022-12-11T07:11:59.156Z,556.5
2022-12-11T07:13:05.884Z,552.8
2022-12-11T07:14:12.634Z,531.8
2022-12-11T07:15:19.521Z,554.3
2022-12-11T07:16:26.191Z,546.9
2022-12-11T07:17:32.965Z,547
2022-12-11T07:18:39.746Z,540.6
2022-12-11T07:19:46.545Z,546
2022-12-11T07:20:53.318Z,540.5
2022-12-11T07:22:00.084Z,539.2
2022-12-11T07:23:06.868Z,539
2022-12-11T07:24:13.645Z,536.9
2022-12-11T07:27:31.816Z,550
2022-12-11T07:29:09.722Z,556.3
2022-12-11T07:30:16.155Z,543
2022-12-11T07:31:22.549Z,543.5
2022-12-11T07:32:28.944Z,543.6
2022-12-11T07:33:35.314Z,555
2022-12-11T07:34:41.700Z,546
2022-12-11T07:35:48.096Z,554
2022-12-11T07:36:54.474Z,539.3
2022-12-11T07:38:00.864Z,542.5
2022-12-11T07:39:07.294Z,530.3
2022-12-11T07:40:13.664Z,534.1
2022-12-11T07:41:20.104Z,547.8
2022-12-11T07:42:26.432Z,543.9
2022-12-11T07:43:32.838Z,538.9
2022-12-11T07:44:39.239Z,550
2022-12-11T07:45:45.647Z,544.4
2022-12-11T07:46:52.055Z,539.4
2022-12-11T07:47:58.456Z,543.1
2022-12-11T07:49:04.860Z,554.4
2022-12-11T07:50:11.280Z,553.9
2022-12-11T07:51:17.680Z,544.9
2022-12-11T07:52:24.079Z,549.5
2022-12-11T07:53:30.478Z,544.3
2022-12-11T07:54:36.892Z,551.5
2022-12-11T07:55:43.299Z,553.6
2022-12-11T07:56:49.842Z,537.8
2022-12-11T07:57:56.362Z,530.8
2022-12-11T07:59:02.883Z,533.6
2022-12-11T08:00:09.430Z,539.5
2022-12-11T08:01:15.936Z,548
2022-12-11T08:02:22.462Z,545.9
2022-12-11T08:03:28.979Z,554.5
2022-12-11T08:04:35.546Z,535.2
2022-12-11T08:05:42.029Z,544.1
2022-12-11T08:06:48.623Z,542.1
2022-12-11T08:07:55.092Z,538.1
2022-12-11T08:09:01.617Z,532.7
2022-12-11T08:10:08.167Z,538.8
2022-12-11T08:11:57.465Z,524
2022-12-11T08:13:04.218Z,541.5
2022-12-11T08:14:10.976Z,547.6
2022-12-11T08:15:17.778Z,541.5
2022-12-11T08:16:24.507Z,542.3
2022-12-11T08:17:31.324Z,539
2022-12-11T08:18:38.057Z,533.1
2022-12-11T08:19:44.866Z,541.2
2022-12-11T08:20:51.677Z,537.6
2022-12-11T08:21:58.433Z,532.7
2022-12-11T08:23:05.197Z,534.9
2022-12-11T08:24:11.949Z,538.4
2022-12-11T08:25:18.708Z,539.7
2022-12-11T08:28:37.026Z,538.5
2022-12-11T08:30:15.626Z,533.9
2022-12-11T08:31:22.896Z,536.5
2022-12-11T08:32:30.059Z,539.4
2022-12-11T08:34:08.772Z,543.2
2022-12-11T08:35:47.501Z,540.8
2022-12-11T08:37:26.214Z,544.8
2022-12-11T08:39:04.926Z,537.9
2022-12-11T08:40:43.649Z,536.1
2022-12-11T08:42:22.370Z,540.5
2022-12-11T08:44:01.086Z,536.1
2022-12-11T08:45:39.813Z,536.6
2022-12-11T08:47:18.538Z,535.7
2022-12-11T08:48:58.273Z,533.6
2022-12-11T08:52:13.884Z,549
2022-12-11T08:53:20.274Z,537.6
2022-12-11T08:54:26.753Z,524.6
2022-12-11T08:55:33.084Z,534.2
2022-12-11T08:56:39.478Z,533.9
2022-12-11T08:57:45.900Z,535.9
2022-12-11T08:58:52.296Z,535.9
2022-12-11T08:59:58.751Z,534.1
2022-12-11T09:01:05.204Z,540.3
2022-12-11T09:02:11.660Z,529.3
2022-12-11T09:03:18.057Z,531.3
2022-12-11T09:04:24.461Z,539.7
2022-12-11T09:05:30.875Z,537.7
2022-12-11T09:06:37.280Z,535.5
2022-12-11T09:07:43.687Z,533.5
2022-12-11T09:08:50.094Z,541.5
2022-12-11T09:09:56.543Z,544.4
2022-12-11T09:11:02.901Z,538.5
2022-12-11T09:12:09.308Z,538.7
2022-12-11T09:13:15.768Z,532.2
2022-12-11T09:14:22.111Z,535.1
2022-12-11T09:15:28.670Z,530.6
2022-12-11T09:16:34.920Z,536.2
2022-12-11T09:17:41.318Z,537
2022-12-11T09:18:47.756Z,539.5
2022-12-11T09:19:54.259Z,539.5
2022-12-11T09:21:00.786Z,523.8
2022-12-11T09:22:07.328Z,539.5
2022-12-11T09:23:13.874Z,533.7
2022-12-11T09:24:20.357Z,530.9
2022-12-11T09:25:26.887Z,541
2022-12-11T09:26:33.437Z,529.4
2022-12-11T09:27:39.909Z,539.7
2022-12-11T09:28:46.488Z,542.2
2022-12-11T09:29:53.010Z,538.5
2022-12-11T09:30:59.575Z,537.6
2022-12-11T09:32:06.141Z,534.6
2022-12-11T09:33:12.539Z,538
2022-12-11T09:35:01.878Z,532.5
2022-12-11T09:36:08.586Z,531.1
2022-12-11T09:37:15.303Z,531.4
2022-12-11T09:38:22.023Z,525.7
2022-12-11T09:39:28.778Z,533.1
2022-12-11T09:40:35.528Z,532.2
2022-12-11T09:41:42.295Z,538.4
2022-12-11T09:42:49.081Z,541.1
2022-12-11T09:43:55.832Z,542.8
2022-12-11T09:45:02.575Z,537.6
2022-12-11T09:46:09.339Z,533.3
2022-12-11T09:47:16.111Z,531.7
2022-12-11T09:48:22.867Z,537.1
2022-12-11T09:51:40.997Z,538.2
2022-12-11T09:53:19.714Z,526.1
2022-12-11T09:54:26.944Z,541.2
2022-12-11T09:55:34.179Z,525.9
2022-12-11T09:57:12.905Z,525.1
2022-12-11T09:58:51.604Z,532.6
2022-12-11T10:00:30.323Z,530.3
2022-12-11T10:02:09.021Z,531.7
2022-12-11T10:03:47.737Z,537.8
2022-12-11T10:05:26.435Z,525
2022-12-11T10:07:05.177Z,526.4
2022-12-11T10:08:43.899Z,531.4
2022-12-11T10:10:22.619Z,527.2
2022-12-11T10:12:02.377Z,530.2
2022-12-11T10:15:17.932Z,530.1
2022-12-11T10:16:24.331Z,531.2
2022-12-11T10:17:30.743Z,529.4
2022-12-11T10:18:37.153Z,528.3
2022-12-11T10:19:43.561Z,536.7
2022-12-11T10:20:49.967Z,531.3
2022-12-11T10:21:56.367Z,525.5
2022-12-11T10:23:02.769Z,521.2
2022-12-11T10:24:09.193Z,524.7
2022-12-11T10:25:15.577Z,524.6
2022-12-11T10:26:22.024Z,523.9
2022-12-11T10:27:28.479Z,519.7
2022-12-11T10:28:34.881Z,523.2
2022-12-11T10:29:41.287Z,524.2
2022-12-11T10:30:47.699Z,526.3
2022-12-11T10:31:54.145Z,527.2
2022-12-11T10:33:00.574Z,527.8
2022-12-11T10:34:06.936Z,532.1
2022-12-11T10:35:13.292Z,539.4
2022-12-11T10:36:19.649Z,525.2
2022-12-11T10:37:26.007Z,530.4
2022-12-11T10:38:32.447Z,535.3
2022-12-11T10:39:38.785Z,526.1
2022-12-11T10:40:45.214Z,525.2
2022-12-11T10:41:51.657Z,525.2
2022-12-11T10:42:58.181Z,522.9
2022-12-11T10:44:04.713Z,531.8
2022-12-11T10:45:11.233Z,536.5
2022-12-11T10:46:17.759Z,531.1
2022-12-11T10:47:24.343Z,524.9
2022-12-11T10:48:30.806Z,529.4
2022-12-11T10:49:37.341Z,535.7
2022-12-11T10:50:43.860Z,528.3
2022-12-11T10:51:50.375Z,525.9
2022-12-11T10:52:56.933Z,529.9
2022-12-11T10:54:03.388Z,518.4
2022-12-11T10:55:09.862Z,515.8
2022-12-11T10:56:16.339Z,529.7
2022-12-11T10:58:05.703Z,525.2
2022-12-11T10:59:12.470Z,522.9
2022-12-11T11:00:19.272Z,524.6
2022-12-11T11:01:25.994Z,525.2
2022-12-11T11:02:32.796Z,524
2022-12-11T11:03:39.596Z,521.3
2022-12-11T11:04:46.392Z,516.8
2022-12-11T11:05:53.293Z,518.3
2022-12-11T11:07:00.001Z,519.5
2022-12-11T11:08:06.758Z,527.4
2022-12-11T11:09:13.512Z,520.3
2022-12-11T11:10:20.325Z,519.8
2022-12-11T11:11:27.121Z,528.3
2022-12-11T11:14:45.238Z,516.1
2022-12-11T11:16:23.960Z,525.8
2022-12-11T11:17:31.137Z,522.7
2022-12-11T11:18:38.366Z,537.2
2022-12-11T11:20:17.132Z,521
2022-12-11T11:21:55.851Z,524
2022-12-11T11:23:34.653Z,519.7
2022-12-11T11:25:13.327Z,527.1
2022-12-11T11:26:52.048Z,522.2
2022-12-11T11:28:30.751Z,532.5
2022-12-11T11:30:09.470Z,526.9
2022-12-11T11:31:48.161Z,527.2
2022-12-11T11:33:26.863Z,529.2
2022-12-11T11:35:06.586Z,525.9
2022-12-11T11:38:22.161Z,526.6
2022-12-11T11:39:28.522Z,524.5
2022-12-11T11:40:34.878Z,525.6
2022-12-11T11:41:41.354Z,533.4
2022-12-11T11:42:47.605Z,521.1
2022-12-11T11:43:53.964Z,514.3
2022-12-11T11:45:00.380Z,516.5
2022-12-11T11:46:06.868Z,523.2
2022-12-11T11:47:13.135Z,521
2022-12-11T11:48:19.510Z,519.2
2022-12-11T11:49:25.857Z,524.9
2022-12-11T11:50:32.278Z,518.5
2022-12-11T11:51:38.629Z,521.6
2022-12-11T11:52:45.054Z,530.3
2022-12-11T11:53:51.403Z,515.2
2022-12-11T11:54:57.816Z,518.2
2022-12-11T11:56:04.168Z,521.1
2022-12-11T11:57:10.535Z,524.4
2022-12-11T11:58:16.894Z,520.5
2022-12-11T11:59:23.309Z,534.3
2022-12-11T12:00:29.676Z,522.1
2022-12-11T12:01:36.077Z,526.3
2022-12-11T12:02:42.516Z,521
2022-12-11T12:03:48.912Z,523.7
2022-12-11T12:06:01.779Z,524.6
2022-12-11T12:07:08.243Z,521.1
2022-12-11T12:08:14.779Z,519.1
2022-12-11T12:09:21.205Z,521.9
2022-12-11T12:10:27.696Z,523.2
2022-12-11T12:11:34.277Z,523.4
2022-12-11T12:12:40.781Z,520.7
2022-12-11T12:13:47.297Z,524.6
2022-12-11T12:14:53.817Z,524.6
2022-12-11T12:16:00.363Z,526.4
2022-12-11T12:17:06.863Z,527.9
2022-12-11T12:18:13.399Z,524.6
2022-12-11T12:19:19.901Z,527.4
2022-12-11T12:21:09.215Z,520.6
2022-12-11T12:22:15.990Z,528.4
2022-12-11T12:23:22.700Z,523.6
2022-12-11T12:24:29.462Z,527
2022-12-11T12:25:36.238Z,527.7
2022-12-11T12:26:42.980Z,524.1
2022-12-11T12:27:49.732Z,526.2
2022-12-11T12:28:56.492Z,534.2
2022-12-11T12:30:03.253Z,525.2
2022-12-11T12:31:09.999Z,521.3
2022-12-11T12:32:16.759Z,519.7
2022-12-11T12:33:23.519Z,520.6
2022-12-11T12:34:30.277Z,522.5
2022-12-11T12:37:48.454Z,528.2
2022-12-11T12:39:27.176Z,526.7
2022-12-11T12:40:34.416Z,522
2022-12-11T12:41:41.636Z,521.4
2022-12-11T12:43:20.379Z,532
2022-12-11T12:44:59.075Z,532
2022-12-11T12:46:37.809Z,522.8
2022-12-11T12:48:16.506Z,523.8
2022-12-11T12:49:55.193Z,522.1
2022-12-11T12:51:33.915Z,532.9
2022-12-11T12:53:12.611Z,523.9
2022-12-11T12:54:51.345Z,538.2
2022-12-11T12:56:30.094Z,524.5
2022-12-11T12:58:09.814Z,531.7
2022-12-11T13:01:25.381Z,534.4
2022-12-11T13:02:31.832Z,519.9
2022-12-11T13:03:38.251Z,524.5
2022-12-11T13:04:44.700Z,524.7
2022-12-11T13:05:51.088Z,524.7
2022-12-11T13:06:57.499Z,524
2022-12-11T13:08:03.914Z,530.7
2022-12-11T13:09:10.323Z,525.8
2022-12-11T13:10:16.775Z,526.3
2022-12-11T13:11:23.224Z,527.3
2022-12-11T13:12:29.500Z,532.8
2022-12-11T13:13:35.910Z,527.9
2022-12-11T13:14:42.392Z,525.6
2022-12-11T13:15:48.835Z,531
2022-12-11T13:16:55.167Z,523.5
2022-12-11T13:18:01.549Z,524.6
2022-12-11T13:19:07.960Z,534.5
2022-12-11T13:20:14.413Z,525.9
2022-12-11T13:21:20.855Z,537.7
2022-12-11T13:22:27.362Z,536.4
2022-12-11T13:23:33.710Z,524.8
2022-12-11T13:24:40.172Z,525
2022-12-11T13:25:46.520Z,519.4
2022-12-11T13:26:52.927Z,528.4
2022-12-11T13:27:59.310Z,523.8
2022-12-11T13:29:05.846Z,532
2022-12-11T13:30:12.386Z,534.3
2022-12-11T13:31:18.894Z,518.2
2022-12-11T13:32:25.410Z,527.3
2022-12-11T13:33:31.977Z,531
2022-12-11T13:34:38.459Z,530.1
2022-12-11T13:35:44.983Z,532.4
2022-12-11T13:36:51.560Z,533.4
2022-12-11T13:37:58.193Z,520.3
2022-12-11T13:39:04.646Z,526
2022-12-11T13:40:11.166Z,526.7
2022-12-11T13:41:17.687Z,521.5
2022-12-11T13:42:24.282Z,526.9
2022-12-11T13:44:13.507Z,523.9
2022-12-11T13:45:20.262Z,529.1
2022-12-11T13:46:27.024Z,529
2022-12-11T13:47:33.784Z,524
2022-12-11T13:48:40.535Z,513.6
2022-12-11T13:49:47.303Z,539.7
2022-12-11T13:50:54.102Z,526.5
2022-12-11T13:52:00.911Z,540
2022-12-11T13:53:07.726Z,527.1
2022-12-11T13:54:14.537Z,529.6
2022-12-11T13:55:21.350Z,519.7
2022-12-11T13:56:28.220Z,530.8
2022-12-11T13:57:34.957Z,529
2022-12-11T14:00:53.017Z,534.9
2022-12-11T14:02:31.733Z,525.9
2022-12-11T14:03:38.964Z,522.6
2022-12-11T14:04:46.216Z,527.6
2022-12-11T14:06:24.913Z,528.9
2022-12-11T14:08:03.637Z,526.9
2022-12-11T14:09:42.344Z,537.1
2022-12-11T14:11:21.049Z,536.7
2022-12-11T14:12:59.759Z,535.3
2022-12-11T14:14:38.469Z,535.9
2022-12-11T14:16:17.191Z,531.1
2022-12-11T14:17:55.907Z,532.8
2022-12-11T14:19:34.632Z,528.4
2022-12-11T14:21:14.368Z,534
2022-12-11T14:24:29.944Z,526.7
2022-12-11T14:25:36.352Z,527.3
2022-12-11T14:26:42.800Z,533.3
2022-12-11T14:27:49.308Z,530.9
2022-12-11T14:28:55.650Z,528.2
2022-12-11T14:30:02.253Z,533.8
2022-12-11T14:31:08.570Z,533.9
2022-12-11T14:32:14.887Z,534.7
2022-12-11T14:33:21.281Z,531.5
2022-12-11T14:34:27.670Z,530.8
2022-12-11T14:35:34.082Z,523.8
2022-12-11T14:36:40.579Z,525.9
2022-12-11T14:37:46.897Z,537
2022-12-11T14:38:53.313Z,533
2022-12-11T14:39:59.747Z,526.1
2022-12-11T14:41:06.190Z,529.8
2022-12-11T14:42:12.543Z,537
2022-12-11T14:43:18.922Z,528.7
2022-12-11T14:44:25.310Z,532.5
2022-12-11T14:45:31.703Z,528
2022-12-11T14:46:38.084Z,531.9
2022-12-11T14:47:44.510Z,533.1
2022-12-11T14:48:50.933Z,534.9
2022-12-11T14:49:57.394Z,533.5
2022-12-11T14:51:03.780Z,539.2
2022-12-11T14:52:10.345Z,530.5
2022-12-11T14:53:16.895Z,528.6
2022-12-11T14:54:23.415Z,529.9
2022-12-11T14:55:29.958Z,534.4
2022-12-11T14:56:36.511Z,534.7
2022-12-11T14:57:43.094Z,529.9
2022-12-11T14:58:49.592Z,526.7
2022-12-11T14:59:56.131Z,536.3
2022-12-11T15:01:02.675Z,536.1
2022-12-11T15:02:09.226Z,530.9
2022-12-11T15:03:15.777Z,527.7
2022-12-11T15:04:22.297Z,532
2022-12-11T15:05:28.838Z,532
2022-12-11T15:07:18.187Z,539.9
2022-12-11T15:08:24.964Z,533.9
2022-12-11T15:09:31.757Z,528.6
2022-12-11T15:10:38.543Z,521.9
2022-12-11T15:11:45.305Z,532.4
2022-12-11T15:12:52.080Z,527.8
2022-12-11T15:13:58.860Z,529.5
2022-12-11T15:15:05.643Z,527.2
2022-12-11T15:16:12.412Z,532.5
2022-12-11T15:17:19.217Z,533.9
2022-12-11T15:18:25.993Z,532
2022-12-11T15:19:32.757Z,534.9
2022-12-11T15:20:39.540Z,525.1
2022-12-11T15:23:57.722Z,530.7
2022-12-11T15:25:35.623Z,533
2022-12-11T15:26:42.053Z,533.5
2022-12-11T15:27:48.471Z,543.7
2022-12-11T15:28:54.888Z,537.6
2022-12-11T15:31:07.742Z,533.9
2022-12-11T15:32:14.161Z,532.8
2022-12-11T15:33:20.594Z,528.7
2022-12-11T15:34:27.011Z,540.2
2022-12-11T15:35:33.436Z,533.9
2022-12-11T15:36:39.876Z,528.4
2022-12-11T15:37:46.284Z,530.8
2022-12-11T15:38:52.708Z,532.3
2022-12-11T15:39:59.169Z,535.1
2022-12-11T15:41:05.546Z,533.9
2022-12-11T15:42:11.979Z,538.8
2022-12-11T15:43:18.399Z,546.5
2022-12-11T15:44:24.836Z,545.3
2022-12-11T15:45:31.243Z,538.7
2022-12-11T15:46:37.681Z,541.7
2022-12-11T15:47:44.095Z,537.7
2022-12-11T15:48:50.517Z,531.9
2022-12-11T15:49:57.001Z,535.3
2022-12-11T15:51:03.371Z,531.5
2022-12-11T15:52:09.823Z,534.3